• Join FlightAware (Why Join?)
  • Login
  • US Flag 
08:36AM EST


 

Airport Tracker/Info


-or-


 

Live Flight TrackerFlight Track Log ✈ EJA951 ✈ 11-Nov-2013 ✈ KLAS - KVNY

Flight Track Log - Related Links

Times and Time Zones

All times are in EST time to prevent confusion due to time zone crossing. See the EJA951 flight status page for this flight to view local times or setup timezone preferences in your user account.

Time Position Orientation Groundspeed Altitude Reporting Facility
EST Latitude Longitude Course Direction KTS MPH feet Rate Location/Type
01:07AM 36.0667 -115.1739 204° Southwest 214 246 3,000  Level Los Angeles Center
01:08AM 36.0089 -115.2064 204° Southwest 249 287 6,000 2,653 Climbing Los Angeles Center
01:08AM 35.9683 -115.2236 199° South 255 293 7,200 2,459 Climbing Los Angeles Center
01:09AM 35.9328 -115.2339 193° South 292 336 8,500 2,852 Climbing Los Angeles Center
01:09AM 35.8883 -115.2433 190° South 275 316 10,100 1,960 Climbing Los Angeles Center
01:10AM 35.8031 -115.2639 191° South 293 337 11,800 1,574 Climbing Los Angeles Center
01:11AM 35.7025 -115.2875 191° South 340 391 13,300 1,623 Climbing Los Angeles Center
01:12AM 35.6219 -115.3667 219° Southwest 360 414 15,100 1,721 Climbing Los Angeles Center
01:13AM 35.5486 -115.4639 227° Southwest 375 432 16,800 1,525 Climbing Los Angeles Center
01:14AM 35.4750 -115.5650 228° Southwest 385 443 18,200 1,377 Climbing Los Angeles Center
01:15AM 35.3997 -115.6686 228° Southwest 397 457 19,600 1,426 Climbing Los Angeles Center
01:16AM 35.3225 -115.7700 227° Southwest 403 464 21,100 1,388 Climbing Los Angeles Center
01:17AM 35.2453 -115.8753 228° Southwest 411 473 22,400 1,438 Climbing Los Angeles Center
01:18AM 35.1492 -116.0031 227° Southwest 422 486 24,000 787 Climbing Los Angeles Center
01:20AM 35.0642 -116.1142 227° Southwest 435 501 24,000  Level Los Angeles Center
01:21AM 34.9756 -116.2314 227° Southwest 455 524 24,000  Level Los Angeles Center
01:22AM 34.8864 -116.3456 226° Southwest 463 533 24,000  Level Los Angeles Center
01:23AM 34.8053 -116.4689 231° Southwest 468 539 24,000 -689 Level Los Angeles Center
01:24AM 34.7808 -116.6211 259° West 463 533 22,600 -1,525 Descending Los Angeles Center
01:25AM 34.7658 -116.7792 263° West 468 539 20,900 -1,289 Descending Los Angeles Center
01:26AM 34.7500 -116.9353 263° West 466 536 20,000 -1,091 Descending Los Angeles Center
01:27AM 34.7347 -117.0867 263° West 453 521 18,700 -1,574 Descending Los Angeles Center
01:28AM 34.7200 -117.2364 263° West 447 514 16,800 -2,016 Descending Los Angeles Center
01:29AM 34.7044 -117.3836 263° West 439 505 14,600 -1,672 Descending Los Angeles Center
01:30AM 34.6872 -117.5267 262° West 431 496 13,400 -787 Descending Los Angeles Center
01:31AM 34.6672 -117.6656 260° West 420 483 13,000 -198 Descending Los Angeles Center
01:32AM 34.6469 -117.8042 260° West 416 479 13,000  Level Los Angeles Center
01:33AM 34.6269 -117.9417 260° West 413 475 13,000 -344 Level Los Angeles Center
01:34AM 34.6072 -118.0761 260° West 406 467 12,300 -1,328 Descending Los Angeles Center
01:35AM 34.5892 -118.2061 260° West 360 414 10,300 -1,721 Descending Los Angeles Center
01:36AM 34.5742 -118.3017 259° West 298 343 8,800 -1,082 Descending Los Angeles Center
01:37AM 34.5578 -118.3967 258° West 290 334 8,100 -397 Descending Los Angeles Center
01:38AM 34.5375 -118.4831 254° West 273 314 8,000 -595 Descending Los Angeles Center
01:39AM 34.4903 -118.5211 214° Southwest 241 277 6,900 -984 Descending Los Angeles Center
01:40AM 34.4294 -118.5122 173° South 220 253 6,000 -1,108 Descending Los Angeles Center
01:41AM 34.3667 -118.5000 171° South 187 215 4,500 -1,268 Descending Southern California TRACON
01:42AM 34.3167 -118.5000 180° South 154 177 3,400 -1,105 Descending Southern California TRACON
01:43AM 34.2833 -118.5000 180° South 142 163 2,400 -992 Descending Southern California TRACON
01:44AM 34.2333 -118.5000 180° South 145 167 1,400 -984 Descending Southern California TRACON
01:47AM 34.2098 -118.4900 North  Level Estimated